Enchantment of the Seas — C6FZ7 — position and weather

sailwx.info

Track history (hours):
 
Tides and Currents Weather Stations Pressure Air Temp Water Temp Dewpoint Dewpoint Depression Visibility Wind Speed Wind Dir Waves Ship Positions

Enchantment of the Seas (Bahamas)

Last reported at 2017-Apr-24 01:00 UTC. Time now 2017-Apr-24 03:23 UTC.
Position N 25°54' W 077°54'.

Type: Passenger vessel. MMSI: 311733000.

Wind from 200 at 14 knots

Barometer 1008.4 mb
Air temperature 21.1 ° C
Visibility: greater than 10.8 NM
Dewpoint 20.8 ° C
Water temperature 24.0 ° C

Date/timePositionNaut miles runAvg speedWind from/ knotsBaromVisibWave heightAir tempDewpointWater temp
2017-Apr-24 01:00N 25°54' W 077°54'44 2.1 200 / 141008.410.8 21.120.824.0
2017-Apr-23 04:00N 25°24' W 077°18'13 4.4 130 / 231014.010.8 24.221.225.0
2017-Apr-23 01:00N 25°36' W 077°24'94 4.5 110 / 241013.710.8 24.018.225.0
2017-Apr-22 04:00N 26°12' W 079°00'0 0.0 110 / 191016.010.8 24.018.724.0
2017-Apr-22 01:00N 26°12' W 079°00'27248.0 110 / 211015.010.8 24.016.725.0
2017-Apr-22 00:53N 26°06' W 079°29'3 8.8
2017-Apr-22 00:29N 26°04' W 079°33'4 9.0
2017-Apr-22 00:00N 26°02' W 079°37'4 8.7
2017-Apr-21 23:31N 25°60' W 079°41'4 8.9
2017-Apr-21 23:01N 25°58' W 079°45'5 9.1
2017-Apr-21 22:31N 25°55' W 079°50'5 9.2
2017-Apr-21 22:01N 25°53' W 079°54'5 9.6
2017-Apr-21 21:31N 25°50' W 079°59'510.0
2017-Apr-21 21:01N 25°48' W 080°03'5 9.6
2017-Apr-21 20:30N 25°46' W 080°08'3 4.8
2017-Apr-21 19:59N 25°47' W 080°11'0 0.0
2017-Apr-21 19:29N 25°47' W 080°11'0 0.0
2017-Apr-21 18:59N 25°47' W 080°11'0 0.0
2017-Apr-21 18:29N 25°47' W 080°11'0 0.0
2017-Apr-21 17:56N 25°47' W 080°11'0 0.0
2017-Apr-21 17:29N 25°47' W 080°11'0 0.0
2017-Apr-21 16:59N 25°47' W 080°11'0 0.0
2017-Apr-21 16:29N 25°47' W 080°11'0 0.0
2017-Apr-21 15:59N 25°47' W 080°11'0 0.0
2017-Apr-21 15:29N 25°47' W 080°11'0 0.0
2017-Apr-21 14:59N 25°47' W 080°11'0 0.0
2017-Apr-21 14:29N 25°47' W 080°11'0 0.0
2017-Apr-21 13:29N 25°47' W 080°11'0 0.0
2017-Apr-21 12:53N 25°47' W 080°11'0 0.0
2017-Apr-21 12:29N 25°47' W 080°11'0 0.0
2017-Apr-21 11:53N 25°47' W 080°11'0 0.0
2017-Apr-21 11:26N 25°47' W 080°11'0 0.9
2017-Apr-21 11:01N 25°47' W 080°11'3 5.7
2017-Apr-21 10:31N 25°46' W 080°08'5 9.3
2017-Apr-21 10:00N 25°47' W 080°03'713.3
2017-Apr-21 09:30N 25°44' W 079°56'714.6
2017-Apr-21 09:00N 25°39' W 079°50'714.3
2017-Apr-21 08:30N 25°32' W 079°49'815.4
2017-Apr-21 08:00N 25°25' W 079°51'816.4
2017-Apr-21 07:30N 25°17' W 079°53'8913.7
2017-Apr-21 01:00N 24°24' W 081°12'79 4.0 090 / 211015.910.8 24.717.825.0
2017-Apr-20 05:07N 25°12' W 080°03'215.3
2017-Apr-20 04:59N 25°14' W 080°02'715.3
2017-Apr-20 04:30N 25°20' W 079°57'815.2
2017-Apr-20 04:00N 25°26' W 079°52'4370.7
2017-Apr-20 04:00N 25°24' W 079°48'816.1 100 / 211020.610.8 23.920.024.0
2017-Apr-20 03:30N 25°32' W 079°47'815.5
2017-Apr-20 03:00N 25°37' W 079°41'917.3
2017-Apr-20 02:30N 25°44' W 079°34'2617.0
2017-Apr-20 01:00N 26°00' W 079°12'38 0.8 110 / 251020.610.8 24.319.325.0
2017-Apr-18 04:00N 26°00' W 078°30'3812.7 110 / 201018.710.8 23.517.325.0
2017-Apr-18 01:00N 26°06' W 079°12'2214.7 110 / 151018.810.8 24.117.825.0
2017-Apr-17 23:30N 25°59' W 079°35'714.0
2017-Apr-17 23:00N 25°57' W 079°42'714.2
2017-Apr-17 22:30N 25°54' W 079°49'714.6
2017-Apr-17 22:00N 25°50' W 079°56'714.3
2017-Apr-17 21:31N 25°46' W 080°03'5 9.7
2017-Apr-17 21:00N 25°46' W 080°09'2 4.7
2017-Apr-17 20:30N 25°47' W 080°11'0 0.4
2017-Apr-17 19:54N 25°47' W 080°11'0 0.0
2017-Apr-17 19:30N 25°47' W 080°11'0 0.0
2017-Apr-17 19:00N 25°47' W 080°11'0 0.0
2017-Apr-17 18:30N 25°47' W 080°11'0 0.0
2017-Apr-17 18:00N 25°47' W 080°11'0 0.0
2017-Apr-17 17:27N 25°47' W 080°11'0 0.0
2017-Apr-17 16:57N 25°47' W 080°11'0 0.0
2017-Apr-17 16:30N 25°47' W 080°11'0 0.0
2017-Apr-17 16:00N 25°47' W 080°11'0 0.0
2017-Apr-17 15:30N 25°47' W 080°11'0 0.0
2017-Apr-17 15:00N 25°47' W 080°11'0 0.0
2017-Apr-17 14:30N 25°47' W 080°11'0 0.0
2017-Apr-17 13:30N 25°47' W 080°11'0 0.0
2017-Apr-17 13:00N 25°47' W 080°11'0 0.0
2017-Apr-17 12:30N 25°47' W 080°11'0 0.0
2017-Apr-17 11:57N 25°47' W 080°11'0 0.0
2017-Apr-17 11:30N 25°47' W 080°11'0 0.0
2017-Apr-17 11:00N 25°47' W 080°11'1 1.5
2017-Apr-17 10:30N 25°47' W 080°10'5 9.4
2017-Apr-17 10:00N 25°46' W 080°05'510.2
2017-Apr-17 09:30N 25°49' W 079°60'612.4
2017-Apr-17 09:00N 25°51' W 079°54'611.8
2017-Apr-17 08:30N 25°54' W 079°48'611.7
2017-Apr-17 08:00N 25°57' W 079°42'612.1
2017-Apr-17 07:30N 25°59' W 079°36'9214.1
2017-Apr-17 01:00N 25°54' W 077°54'44 2.1 090 / 171021.410.8 23.017.725.0
2017-Apr-16 04:00N 25°24' W 077°18'5 1.8 070 / 291021.810.8 23.217.824.0
2017-Apr-16 01:00N 25°24' W 077°24'99 4.7 080 / 271022.510.8 23.118.224.0
2017-Apr-15 04:00N 26°12' W 079°00'24 8.7 050 / 251021.310.8 23.718.025.0
2017-Apr-15 01:11N 26°07' W 079°27'315.8
2017-Apr-15 01:00N 26°06' W 079°24'42112.7 050 / 251020.610.8 23.317.825.0
2017-Apr-15 00:59N 26°06' W 079°29'5 9.3
2017-Apr-15 00:30N 26°04' W 079°33'5 9.4
2017-Apr-14 23:59N 26°01' W 079°37'4 9.3
2017-Apr-14 23:30N 25°59' W 079°42'5 9.4
2017-Apr-14 23:00N 25°56' W 079°46'5 9.5
2017-Apr-14 22:30N 25°54' W 079°51'510.1
2017-Apr-14 22:00N 25°51' W 079°55'510.0
2017-Apr-14 21:30N 25°49' W 079°60'5 9.6
2017-Apr-14 21:00N 25°46' W 080°04'5 9.0
2017-Apr-14 20:30N 25°46' W 080°09'1 2.2
2017-Apr-14 20:00N 25°47' W 080°10'0 0.0
2017-Apr-14 19:30N 25°47' W 080°10'0 0.0
2017-Apr-14 19:00N 25°47' W 080°10'0 0.0
2017-Apr-14 18:21N 25°47' W 080°10'0 0.0
2017-Apr-14 18:00N 25°47' W 080°10'0 0.0
2017-Apr-14 17:30N 25°47' W 080°10'0 0.0
2017-Apr-14 16:57N 25°47' W 080°10'0 0.0
2017-Apr-14 16:30N 25°47' W 080°10'0 0.0
2017-Apr-14 16:00N 25°47' W 080°10'0 0.0
2017-Apr-14 15:27N 25°47' W 080°10'0 0.0
2017-Apr-14 14:57N 25°47' W 080°10'0 0.0
2017-Apr-14 14:27N 25°47' W 080°10'0 0.0
2017-Apr-14 13:30N 25°47' W 080°10'0 0.0
2017-Apr-14 13:00N 25°47' W 080°10'0 0.0
2017-Apr-14 12:30N 25°47' W 080°10'0 0.0
2017-Apr-14 12:00N 25°47' W 080°10'0 0.0
2017-Apr-14 11:31N 25°47' W 080°10'1 1.3
2017-Apr-14 11:00N 25°47' W 080°11'3 6.4
2017-Apr-14 10:30N 25°46' W 080°08'5 9.4
2017-Apr-14 10:01N 25°47' W 080°03'510.4
2017-Apr-14 09:30N 25°45' W 079°57'612.9
2017-Apr-14 09:00N 25°41' W 079°52'612.9
2017-Apr-14 08:30N 25°35' W 079°49'714.6
2017-Apr-14 08:00N 25°28' W 079°50'815.9
2017-Apr-14 07:30N 25°20' W 079°52'5315.0
2017-Apr-14 04:00N 24°36' W 080°24'4715.8 070 / 201019.310.8 24.016.225.0
2017-Apr-14 01:00N 24°18' W 081°12'   050 / 211017.710.8 24.217.425.0
Track history (hours):
 
Tides and Currents Weather Stations Pressure Air Temp Water Temp Dewpoint Dewpoint Depression Visibility Wind Speed Wind Dir Waves Ship Positions

Enchantment of the Seas (Bahamas)

Last reported at 2017-Apr-24 01:00 UTC. Time now 2017-Apr-24 03:23 UTC.
Position N 25°54' W 077°54'.

Type: Passenger vessel. MMSI: 311733000.

Wind from 200 at 14 knots

Barometer 1008.4 mb
Air temperature 21.1 ° C
Visibility: greater than 10.8 NM
Dewpoint 20.8 ° C
Water temperature 24.0 ° C

Date/timePositionNaut miles runAvg speedWind from/ knotsBaromVisibWave heightAir tempDewpointWater temp
2017-Apr-24 01:00N 25°54' W 077°54'44 2.1 200 / 141008.410.8 21.120.824.0
2017-Apr-23 04:00N 25°24' W 077°18'13 4.4 130 / 231014.010.8 24.221.225.0
2017-Apr-23 01:00N 25°36' W 077°24'94 4.5 110 / 241013.710.8 24.018.225.0
2017-Apr-22 04:00N 26°12' W 079°00'0 0.0 110 / 191016.010.8 24.018.724.0
2017-Apr-22 01:00N 26°12' W 079°00'27248.0 110 / 211015.010.8 24.016.725.0
2017-Apr-22 00:53N 26°06' W 079°29'3 8.8
2017-Apr-22 00:29N 26°04' W 079°33'4 9.0
2017-Apr-22 00:00N 26°02' W 079°37'4 8.7
2017-Apr-21 23:31N 25°60' W 079°41'4 8.9
2017-Apr-21 23:01N 25°58' W 079°45'5 9.1
2017-Apr-21 22:31N 25°55' W 079°50'5 9.2
2017-Apr-21 22:01N 25°53' W 079°54'5 9.6
2017-Apr-21 21:31N 25°50' W 079°59'510.0
2017-Apr-21 21:01N 25°48' W 080°03'5 9.6
2017-Apr-21 20:30N 25°46' W 080°08'3 4.8
2017-Apr-21 19:59N 25°47' W 080°11'0 0.0
2017-Apr-21 19:29N 25°47' W 080°11'0 0.0
2017-Apr-21 18:59N 25°47' W 080°11'0 0.0
2017-Apr-21 18:29N 25°47' W 080°11'0 0.0
2017-Apr-21 17:56N 25°47' W 080°11'0 0.0
2017-Apr-21 17:29N 25°47' W 080°11'0 0.0
2017-Apr-21 16:59N 25°47' W 080°11'0 0.0
2017-Apr-21 16:29N 25°47' W 080°11'0 0.0
2017-Apr-21 15:59N 25°47' W 080°11'0 0.0
2017-Apr-21 15:29N 25°47' W 080°11'0 0.0
2017-Apr-21 14:59N 25°47' W 080°11'0 0.0
2017-Apr-21 14:29N 25°47' W 080°11'0 0.0
2017-Apr-21 13:29N 25°47' W 080°11'0 0.0
2017-Apr-21 12:53N 25°47' W 080°11'0 0.0
2017-Apr-21 12:29N 25°47' W 080°11'0 0.0
2017-Apr-21 11:53N 25°47' W 080°11'0 0.0
2017-Apr-21 11:26N 25°47' W 080°11'0 0.9
2017-Apr-21 11:01N 25°47' W 080°11'3 5.7
2017-Apr-21 10:31N 25°46' W 080°08'5 9.3
2017-Apr-21 10:00N 25°47' W 080°03'713.3
2017-Apr-21 09:30N 25°44' W 079°56'714.6
2017-Apr-21 09:00N 25°39' W 079°50'714.3
2017-Apr-21 08:30N 25°32' W 079°49'815.4
2017-Apr-21 08:00N 25°25' W 079°51'816.4
2017-Apr-21 07:30N 25°17' W 079°53'8913.7
2017-Apr-21 01:00N 24°24' W 081°12'79 4.0 090 / 211015.910.8 24.717.825.0
2017-Apr-20 05:07N 25°12' W 080°03'215.3
2017-Apr-20 04:59N 25°14' W 080°02'715.3
2017-Apr-20 04:30N 25°20' W 079°57'815.2
2017-Apr-20 04:00N 25°26' W 079°52'4370.7
2017-Apr-20 04:00N 25°24' W 079°48'816.1 100 / 211020.610.8 23.920.024.0
2017-Apr-20 03:30N 25°32' W 079°47'815.5
2017-Apr-20 03:00N 25°37' W 079°41'917.3
2017-Apr-20 02:30N 25°44' W 079°34'2617.0
2017-Apr-20 01:00N 26°00' W 079°12'38 0.8 110 / 251020.610.8 24.319.325.0
2017-Apr-18 04:00N 26°00' W 078°30'3812.7 110 / 201018.710.8 23.517.325.0
2017-Apr-18 01:00N 26°06' W 079°12'2214.7 110 / 151018.810.8 24.117.825.0
2017-Apr-17 23:30N 25°59' W 079°35'714.0
2017-Apr-17 23:00N 25°57' W 079°42'714.2
2017-Apr-17 22:30N 25°54' W 079°49'714.6
2017-Apr-17 22:00N 25°50' W 079°56'714.3
2017-Apr-17 21:31N 25°46' W 080°03'5 9.7
2017-Apr-17 21:00N 25°46' W 080°09'2 4.7
2017-Apr-17 20:30N 25°47' W 080°11'0 0.4
2017-Apr-17 19:54N 25°47' W 080°11'0 0.0
2017-Apr-17 19:30N 25°47' W 080°11'0 0.0
2017-Apr-17 19:00N 25°47' W 080°11'0 0.0
2017-Apr-17 18:30N 25°47' W 080°11'0 0.0
2017-Apr-17 18:00N 25°47' W 080°11'0 0.0
2017-Apr-17 17:27N 25°47' W 080°11'0 0.0
2017-Apr-17 16:57N 25°47' W 080°11'0 0.0
2017-Apr-17 16:30N 25°47' W 080°11'0 0.0
2017-Apr-17 16:00N 25°47' W 080°11'0 0.0
2017-Apr-17 15:30N 25°47' W 080°11'0 0.0
2017-Apr-17 15:00N 25°47' W 080°11'0 0.0
2017-Apr-17 14:30N 25°47' W 080°11'0 0.0
2017-Apr-17 13:30N 25°47' W 080°11'0 0.0
2017-Apr-17 13:00N 25°47' W 080°11'0 0.0
2017-Apr-17 12:30N 25°47' W 080°11'0 0.0
2017-Apr-17 11:57N 25°47' W 080°11'0 0.0
2017-Apr-17 11:30N 25°47' W 080°11'0 0.0
2017-Apr-17 11:00N 25°47' W 080°11'1 1.5
2017-Apr-17 10:30N 25°47' W 080°10'5 9.4
2017-Apr-17 10:00N 25°46' W 080°05'510.2
2017-Apr-17 09:30N 25°49' W 079°60'612.4
2017-Apr-17 09:00N 25°51' W 079°54'611.8
2017-Apr-17 08:30N 25°54' W 079°48'611.7
2017-Apr-17 08:00N 25°57' W 079°42'612.1
2017-Apr-17 07:30N 25°59' W 079°36'9214.1
2017-Apr-17 01:00N 25°54' W 077°54'44 2.1 090 / 171021.410.8 23.017.725.0
2017-Apr-16 04:00N 25°24' W 077°18'5 1.8 070 / 291021.810.8 23.217.824.0
2017-Apr-16 01:00N 25°24' W 077°24'99 4.7 080 / 271022.510.8 23.118.224.0
2017-Apr-15 04:00N 26°12' W 079°00'24 8.7 050 / 251021.310.8 23.718.025.0
2017-Apr-15 01:11N 26°07' W 079°27'315.8
2017-Apr-15 01:00N 26°06' W 079°24'42112.7 050 / 251020.610.8 23.317.825.0
2017-Apr-15 00:59N 26°06' W 079°29'5 9.3
2017-Apr-15 00:30N 26°04' W 079°33'5 9.4
2017-Apr-14 23:59N 26°01' W 079°37'4 9.3
2017-Apr-14 23:30N 25°59' W 079°42'5 9.4
2017-Apr-14 23:00N 25°56' W 079°46'5 9.5
2017-Apr-14 22:30N 25°54' W 079°51'510.1
2017-Apr-14 22:00N 25°51' W 079°55'510.0
2017-Apr-14 21:30N 25°49' W 079°60'5 9.6
2017-Apr-14 21:00N 25°46' W 080°04'5 9.0
2017-Apr-14 20:30N 25°46' W 080°09'1 2.2
2017-Apr-14 20:00N 25°47' W 080°10'0 0.0
2017-Apr-14 19:30N 25°47' W 080°10'0 0.0
2017-Apr-14 19:00N 25°47' W 080°10'0 0.0
2017-Apr-14 18:21N 25°47' W 080°10'0 0.0
2017-Apr-14 18:00N 25°47' W 080°10'0 0.0
2017-Apr-14 17:30N 25°47' W 080°10'0 0.0
2017-Apr-14 16:57N 25°47' W 080°10'0 0.0
2017-Apr-14 16:30N 25°47' W 080°10'0 0.0
2017-Apr-14 16:00N 25°47' W 080°10'0 0.0
2017-Apr-14 15:27N 25°47' W 080°10'0 0.0
2017-Apr-14 14:57N 25°47' W 080°10'0 0.0
2017-Apr-14 14:27N 25°47' W 080°10'0 0.0
2017-Apr-14 13:30N 25°47' W 080°10'0 0.0
2017-Apr-14 13:00N 25°47' W 080°10'0 0.0
2017-Apr-14 12:30N 25°47' W 080°10'0 0.0
2017-Apr-14 12:00N 25°47' W 080°10'0 0.0
2017-Apr-14 11:31N 25°47' W 080°10'1 1.3
2017-Apr-14 11:00N 25°47' W 080°11'3 6.4
2017-Apr-14 10:30N 25°46' W 080°08'5 9.4
2017-Apr-14 10:01N 25°47' W 080°03'510.4
2017-Apr-14 09:30N 25°45' W 079°57'612.9
2017-Apr-14 09:00N 25°41' W 079°52'612.9
2017-Apr-14 08:30N 25°35' W 079°49'714.6
2017-Apr-14 08:00N 25°28' W 079°50'815.9
2017-Apr-14 07:30N 25°20' W 079°52'5315.0
2017-Apr-14 04:00N 24°36' W 080°24'4715.8 070 / 201019.310.8 24.016.225.0
2017-Apr-14 01:00N 24°18' W 081°12'   050 / 211017.710.8 24.217.425.0

Dump ship's entire track history